createdAt,value
2023-02-06T00:00:24.439Z,-1.41
2023-02-06T00:01:32.038Z,-1.44
2023-02-06T00:02:36.902Z,-1.52
2023-02-06T00:03:40.260Z,-1.54
2023-02-06T00:04:44.714Z,-1.60
2023-02-06T00:05:59.094Z,-1.55
2023-02-06T00:07:02.530Z,-1.66
2023-02-06T00:08:07.488Z,-1.64
2023-02-06T00:09:11.585Z,-1.48
2023-02-06T00:10:15.967Z,-1.61
2023-02-06T00:11:19.549Z,-1.72
2023-02-06T00:12:26.394Z,-1.72
2023-02-06T00:13:32.954Z,-1.74
2023-02-06T00:14:41.297Z,-1.71
2023-02-06T00:15:47.767Z,-1.50
2023-02-06T00:16:50.879Z,-1.58
2023-02-06T00:17:57.410Z,-1.57
2023-02-06T00:19:02.056Z,-1.67
2023-02-06T00:20:09.741Z,-1.70
2023-02-06T00:36:08.033Z,-1.57
2023-02-06T00:37:11.910Z,-1.50
2023-02-06T00:41:58.049Z,-1.57
2023-02-06T01:03:26.998Z,-1.58
2023-02-06T01:04:31.479Z,-1.52
2023-02-06T01:05:38.424Z,-1.45
2023-02-06T01:06:44.121Z,-1.54
2023-02-06T01:07:47.493Z,-1.57
2023-02-06T01:08:55.411Z,-1.61
2023-02-06T01:10:01.275Z,-1.59
2023-02-06T01:11:15.335Z,-1.63
2023-02-06T01:12:19.232Z,-1.61
2023-02-06T01:13:23.796Z,-1.59
2023-02-06T01:18:06.804Z,-1.79
2023-02-06T01:19:11.963Z,-1.79
2023-02-06T01:20:23.722Z,-1.86
2023-02-06T01:21:28.304Z,-1.78
2023-02-06T01:22:35.611Z,-1.78
2023-02-06T01:23:42.348Z,-1.82
2023-02-06T01:26:33.008Z,-1.86
2023-02-06T01:27:45.620Z,-1.90
2023-02-06T01:29:14.029Z,-1.88
2023-02-06T01:30:23.039Z,-2.00
2023-02-06T01:31:30.347Z,-1.88
2023-02-06T01:32:40.566Z,-1.97
2023-02-06T01:33:46.238Z,-1.90
2023-02-06T01:34:50.884Z,-1.95
2023-02-06T01:36:00.928Z,-1.91
2023-02-06T01:37:06.397Z,-1.87
2023-02-06T01:38:09.735Z,-1.95
2023-02-06T01:39:16.880Z,-1.99
2023-02-06T01:40:24.388Z,-1.94
2023-02-06T01:41:33.543Z,-1.85
2023-02-06T01:42:41.010Z,-2.10
2023-02-06T01:44:13.928Z,-2.05
2023-02-06T01:45:27.532Z,-1.94
2023-02-06T01:46:34.991Z,-2.06
2023-02-06T01:47:43.003Z,-2.12
2023-02-06T01:48:52.336Z,-2.13
2023-02-06T01:50:03.318Z,-2.06
2023-02-06T01:51:07.911Z,-1.93
2023-02-06T01:52:16.603Z,-1.97
2023-02-06T01:53:23.141Z,-1.92
2023-02-06T01:54:27.192Z,-1.93
2023-02-06T01:55:31.052Z,-2.05
2023-02-06T01:56:42.114Z,-2.01
2023-02-06T01:58:03.052Z,-1.91
2023-02-06T01:59:13.792Z,-1.87
2023-02-06T02:00:22.580Z,-1.86
2023-02-06T02:01:28.050Z,-1.91
2023-02-06T02:02:34.668Z,-1.70
2023-02-06T02:03:41.008Z,-2.01
2023-02-06T02:04:46.997Z,-2.10
2023-02-06T02:05:51.716Z,-2.00
2023-02-06T02:07:22.077Z,-2.15
2023-02-06T02:19:29.630Z,-2.07
2023-02-06T02:20:51.150Z,-2.06
2023-02-06T02:22:19.441Z,-2.02
2023-02-06T02:24:07.667Z,-2.01
2023-02-06T02:25:47.525Z,-1.90
2023-02-06T02:27:30.421Z,-2.03
2023-02-06T02:28:45.302Z,-2.12
2023-02-06T02:30:01.280Z,-2.02
2023-02-06T02:31:38.853Z,-2.15
2023-02-06T02:33:06.721Z,-2.07
2023-02-06T02:34:45.127Z,-2.04
2023-02-06T02:36:02.174Z,-2.09
2023-02-06T02:37:30.254Z,-1.91
2023-02-06T02:39:07.121Z,-2.11
2023-02-06T02:40:20.456Z,-2.29
2023-02-06T02:41:24.249Z,-2.26
2023-02-06T02:42:41.311Z,-2.20
2023-02-06T02:43:56.829Z,-2.35
2023-02-06T02:45:11.498Z,-2.34
2023-02-06T02:48:08.747Z,-2.13
2023-02-06T02:49:18.179Z,-2.15
2023-02-06T02:50:24.170Z,-2.20
2023-02-06T02:51:29.252Z,-2.29
2023-02-06T02:52:36.338Z,-2.31
2023-02-06T02:53:41.204Z,-2.38
2023-02-06T02:54:44.530Z,-2.25
2023-02-06T02:55:48.619Z,-2.22
2023-02-06T02:56:57.534Z,-2.29
2023-02-06T02:58:14.924Z,-2.19
2023-02-06T02:59:35.170Z,-2.08
2023-02-06T03:00:53.350Z,-1.94
2023-02-06T03:02:11.194Z,-2.13
2023-02-06T03:03:23.010Z,-2.27
2023-02-06T03:04:38.453Z,-2.29
2023-02-06T03:05:53.951Z,-2.12
2023-02-06T03:07:17.218Z,-2.21
2023-02-06T03:08:51.430Z,-2.30
2023-02-06T03:10:17.342Z,-2.26
2023-02-06T03:11:22.170Z,-2.20
2023-02-06T03:12:27.056Z,-2.17
2023-02-06T03:13:38.537Z,-2.14
2023-02-06T03:14:56.381Z,-2.27
2023-02-06T03:16:20.446Z,-2.19
2023-02-06T03:17:50.617Z,-2.07
2023-02-06T03:19:03.532Z,-2.01
2023-02-06T03:20:12.434Z,-2.14
2023-02-06T03:21:19.720Z,-2.23
2023-02-06T03:22:27.357Z,-2.18
2023-02-06T03:23:37.325Z,-2.24
2023-02-06T03:24:41.766Z,-2.18
2023-02-06T03:25:47.390Z,-2.31
2023-02-06T03:26:52.987Z,-2.25
2023-02-06T03:27:59.149Z,-2.48
2023-02-06T03:29:06.457Z,-2.33
2023-02-06T03:30:13.691Z,-2.47
2023-02-06T03:31:25.395Z,-2.49
2023-02-06T03:32:35.624Z,-2.53
2023-02-06T03:33:49.302Z,-2.43
2023-02-06T03:35:29.201Z,-2.45
2023-02-06T03:36:33.593Z,-2.51
2023-02-06T03:37:38.082Z,-2.49
2023-02-06T03:38:51.206Z,-2.41
2023-02-06T03:39:59.361Z,-2.36
2023-02-06T03:41:06.737Z,-2.60
2023-02-06T03:42:13.262Z,-2.53
2023-02-06T03:43:22.776Z,-2.49
2023-02-06T03:44:33.239Z,-2.51
2023-02-06T03:45:52.192Z,-2.56
2023-02-06T03:46:58.968Z,-2.60
2023-02-06T03:48:19.827Z,-2.63
2023-02-06T03:49:28.502Z,-2.68
2023-02-06T03:50:37.136Z,-2.66
2023-02-06T03:51:48.896Z,-2.72
2023-02-06T03:52:57.671Z,-2.77
2023-02-06T03:54:07.106Z,-2.71
2023-02-06T03:55:23.665Z,-2.56
2023-02-06T03:56:36.484Z,-2.62
2023-02-06T03:57:42.473Z,-2.50
2023-02-06T03:58:47.221Z,-2.55
2023-02-06T03:59:50.975Z,-2.69
2023-02-06T04:00:58.801Z,-2.61
2023-02-06T04:02:05.626Z,-2.44
2023-02-06T04:03:11.011Z,-2.39
2023-02-06T04:04:25.303Z,-2.53
2023-02-06T04:05:30.526Z,-2.54
2023-02-06T04:06:39.405Z,-2.37
2023-02-06T04:07:43.153Z,-2.49
2023-02-06T04:08:51.001Z,-2.57
2023-02-06T04:09:54.200Z,-2.57
2023-02-06T04:10:58.753Z,-2.65
2023-02-06T04:15:46.561Z,-2.79
2023-02-06T04:16:51.544Z,-2.68
2023-02-06T04:18:00.986Z,-2.70
2023-02-06T04:19:10.220Z,-2.70
2023-02-06T05:56:50.599Z,-3.21
2023-02-06T05:57:53.803Z,-3.07
2023-02-06T05:59:01.757Z,-3.13
2023-02-06T06:00:09.932Z,-3.05
2023-02-06T06:01:17.263Z,-2.83
2023-02-06T06:02:22.208Z,-3.06
2023-02-06T06:03:28.463Z,-3.05
2023-02-06T06:04:34.053Z,-2.80
2023-02-06T06:05:39.462Z,-2.84
2023-02-06T06:06:43.172Z,-2.89
2023-02-06T06:07:52.946Z,-2.65
2023-02-06T06:09:01.519Z,-2.52
2023-02-06T06:10:09.713Z,-2.55
2023-02-06T06:11:15.622Z,-2.63
2023-02-06T06:15:18.929Z,-3.01
2023-02-06T06:16:25.535Z,-2.77
2023-02-06T06:17:33.640Z,-2.70
2023-02-06T06:18:39.198Z,-2.77
2023-02-06T06:19:50.637Z,-2.92
2023-02-06T06:20:55.714Z,-3.00
2023-02-06T06:22:00.122Z,-3.03
2023-02-06T06:23:06.779Z,-3.03
2023-02-06T06:24:13.291Z,-2.83
2023-02-06T06:25:18.677Z,-2.74
2023-02-06T06:26:21.854Z,-2.57
2023-02-06T06:27:27.081Z,-2.59
2023-02-06T06:28:31.048Z,-2.93
2023-02-06T06:29:39.983Z,-2.86
2023-02-06T06:30:45.337Z,-2.98
2023-02-06T06:31:53.226Z,-3.12
2023-02-06T06:32:57.685Z,-3.06
2023-02-06T06:34:03.224Z,-3.14
2023-02-06T06:35:08.096Z,-2.76
2023-02-06T06:36:14.958Z,-2.73
2023-02-06T06:37:18.347Z,-2.49
2023-02-06T06:38:21.790Z,-2.43
2023-02-06T06:39:28.017Z,-2.35
2023-02-06T06:40:36.133Z,-2.25
2023-02-06T06:41:43.962Z,-2.11
2023-02-06T06:42:47.987Z,-2.26
2023-02-06T08:15:58.759Z,-2.42
2023-02-06T08:17:03.933Z,-2.33
2023-02-06T08:18:09.096Z,-2.59
2023-02-06T08:19:12.884Z,-2.60
2023-02-06T08:20:16.593Z,-2.59
2023-02-06T08:21:25.089Z,-2.49
2023-02-06T08:22:34.006Z,-2.35
2023-02-06T08:23:39.773Z,-2.38
2023-02-06T08:24:44.036Z,-2.23
2023-02-06T08:25:54.994Z,-2.23
2023-02-06T08:27:03.565Z,-2.15
2023-02-06T08:28:15.406Z,-2.23
2023-02-06T08:29:25.362Z,-2.33
2023-02-06T08:30:34.830Z,-2.43
2023-02-06T08:31:44.053Z,-2.38
2023-02-06T08:32:54.732Z,-2.50
2023-02-06T08:34:14.952Z,-2.48
2023-02-06T08:40:48.175Z,-2.08
2023-02-06T09:50:27.074Z,-2.13
2023-02-06T09:52:05.986Z,-2.06
2023-02-06T13:01:58.066Z,-1.63
2023-02-06T13:03:27.437Z,-1.46
2023-02-06T13:04:36.825Z,-1.51
2023-02-06T13:05:59.150Z,-1.63
2023-02-06T13:07:48.770Z,-1.58
2023-02-06T13:09:03.899Z,-1.55
2023-02-06T13:10:10.451Z,-1.42
2023-02-06T13:11:41.789Z,-1.67
2023-02-06T13:13:03.167Z,-2.02
2023-02-06T13:14:20.306Z,-2.01
2023-02-06T13:15:38.870Z,-1.99
2023-02-06T13:17:27.981Z,-2.27
2023-02-06T13:18:42.899Z,-2.19
2023-02-06T13:21:44.009Z,-2.04
2023-02-06T13:23:20.893Z,-2.09
2023-02-06T13:24:32.708Z,-2.01
2023-02-06T13:25:57.861Z,-1.81
2023-02-06T13:27:29.538Z,-1.79
2023-02-06T13:28:41.166Z,-1.73
2023-02-06T13:29:55.113Z,-1.97
2023-02-06T13:31:29.061Z,-2.05
2023-02-06T13:32:45.048Z,-2.13
2023-02-06T13:51:57.964Z,-2.00
2023-02-06T13:53:38.380Z,-1.96
2023-02-06T13:55:08.030Z,-1.92
2023-02-06T13:56:43.307Z,-2.22
2023-02-06T13:58:27.956Z,-2.17
2023-02-06T13:59:52.556Z,-2.01
2023-02-06T14:01:02.171Z,-1.81
2023-02-06T14:05:48.841Z,-2.18
2023-02-06T14:07:36.675Z,-2.25
2023-02-06T14:09:04.689Z,-1.97
2023-02-06T14:10:17.141Z,-1.96
2023-02-06T14:12:05.387Z,-2.02
2023-02-06T14:13:26.360Z,-2.07
2023-02-06T14:15:06.294Z,-2.11
2023-02-06T14:16:35.762Z,-2.03
2023-02-06T14:18:33.197Z,-2.00
2023-02-06T14:20:02.907Z,-1.98
2023-02-06T14:21:26.503Z,-1.88
2023-02-06T14:23:30.338Z,-2.06
2023-02-06T14:25:05.165Z,-2.23
2023-02-06T15:31:40.858Z,-1.82
2023-02-06T15:32:55.938Z,-1.99
2023-02-06T15:34:07.837Z,-1.91
2023-02-06T15:35:37.895Z,-1.89
2023-02-06T15:36:48.863Z,-1.91
2023-02-06T18:22:56.982Z,-2.26
2023-02-06T18:24:10.757Z,-2.27
2023-02-06T18:25:15.700Z,-2.33
2023-02-06T18:26:21.955Z,-2.41
2023-02-06T18:27:27.418Z,-2.28
2023-02-06T18:28:30.666Z,-2.24
2023-02-06T18:29:49.300Z,-2.19
2023-02-06T18:30:53.770Z,-2.23
2023-02-06T18:32:01.615Z,-2.20
2023-02-06T18:33:04.783Z,-2.17
2023-02-06T18:34:08.593Z,-2.16
2023-02-06T18:35:11.384Z,-2.27
2023-02-06T18:36:18.637Z,-2.41
2023-02-06T18:37:24.038Z,-2.17
2023-02-06T18:38:30.410Z,-2.24
2023-02-06T18:39:33.171Z,-2.40
2023-02-06T18:40:46.859Z,-2.36
2023-02-06T18:42:09.856Z,-2.38
2023-02-06T18:43:15.683Z,-2.41
2023-02-06T18:44:19.570Z,-2.50
2023-02-06T18:45:31.590Z,-2.35
2023-02-06T18:46:37.160Z,-2.31
2023-02-06T18:47:42.976Z,-2.34
2023-02-06T18:48:45.882Z,-2.57
2023-02-06T18:49:48.308Z,-2.62
2023-02-06T18:50:50.713Z,-2.64
2023-02-06T18:51:54.397Z,-2.66
2023-02-06T18:52:58.475Z,-2.55
2023-02-06T18:54:02.060Z,-2.41
2023-02-06T18:55:11.001Z,-2.58
2023-02-06T18:56:17.905Z,-2.52
2023-02-06T18:57:22.362Z,-2.50
2023-02-06T18:58:26.632Z,-2.60
2023-02-06T18:59:29.674Z,-2.60
2023-02-06T19:00:38.174Z,-2.66
2023-02-06T19:01:44.814Z,-2.59
2023-02-06T19:02:47.429Z,-2.64
2023-02-06T19:03:50.699Z,-2.65
2023-02-06T19:04:54.736Z,-2.63
2023-02-06T19:06:01.213Z,-2.60
2023-02-06T19:07:03.934Z,-2.70
2023-02-06T19:08:06.516Z,-2.74
2023-02-06T19:09:16.834Z,-2.76
2023-02-06T19:10:20.564Z,-2.85
2023-02-06T19:11:23.388Z,-2.68
2023-02-06T19:12:28.744Z,-2.73
2023-02-06T19:13:31.521Z,-2.77
2023-02-06T19:14:33.871Z,-2.77
2023-02-06T19:15:38.391Z,-2.64
2023-02-06T19:16:45.273Z,-2.60
2023-02-06T19:17:50.709Z,-2.68
2023-02-06T19:18:53.932Z,-2.65
2023-02-06T19:19:58.192Z,-2.60
2023-02-06T19:21:01.549Z,-2.47
2023-02-06T19:22:04.787Z,-2.58
2023-02-06T19:23:07.564Z,-2.59
2023-02-06T19:24:20.912Z,-2.67
2023-02-06T19:25:24.325Z,-2.53
2023-02-06T19:26:30.973Z,-2.56
2023-02-06T19:27:33.368Z,-2.52
2023-02-06T19:28:38.580Z,-2.66
2023-02-06T19:29:40.957Z,-2.63
2023-02-06T19:30:43.228Z,-2.55
2023-02-06T19:31:46.394Z,-2.41
2023-02-06T19:32:51.638Z,-2.51
2023-02-06T19:33:59.991Z,-2.56
2023-02-06T19:35:03.635Z,-2.56
2023-02-06T19:36:16.518Z,-2.67
2023-02-06T19:37:20.941Z,-2.54
2023-02-06T19:38:25.251Z,-2.53
2023-02-06T19:39:34.574Z,-2.51
2023-02-06T19:40:44.717Z,-2.46
2023-02-06T19:41:49.571Z,-2.72
2023-02-06T19:42:57.425Z,-2.67
2023-02-06T19:44:14.986Z,-2.66
2023-02-06T19:45:19.790Z,-2.48
2023-02-06T19:46:25.630Z,-2.66
2023-02-06T19:47:28.810Z,-2.68
2023-02-06T19:48:37.521Z,-2.65
2023-02-06T19:49:44.670Z,-2.68
2023-02-06T19:50:48.841Z,-2.61
2023-02-06T19:52:00.125Z,-2.57
2023-02-06T19:53:06.285Z,-2.64
2023-02-06T19:54:11.858Z,-2.55
2023-02-06T19:55:16.332Z,-2.63
2023-02-06T19:56:39.718Z,-2.54
2023-02-06T19:57:43.296Z,-2.69
2023-02-06T19:58:49.063Z,-2.82
2023-02-06T19:59:54.870Z,-2.69
2023-02-06T20:01:00.628Z,-2.61
2023-02-06T20:02:04.766Z,-2.65
2023-02-06T20:03:13.173Z,-2.67
2023-02-06T20:06:16.051Z,-2.77
2023-02-06T20:07:45.747Z,-2.70
2023-02-06T20:09:15.119Z,-2.72
2023-02-06T20:10:29.195Z,-2.76
2023-02-06T20:12:48.927Z,-2.68
2023-02-06T20:13:56.400Z,-2.83
2023-02-06T20:17:17.923Z,-2.76
2023-02-06T20:18:29.514Z,-2.86
2023-02-06T20:19:34.186Z,-2.73
2023-02-06T20:20:42.042Z,-2.65
2023-02-06T20:21:51.204Z,-2.61
2023-02-06T20:23:01.652Z,-2.73
2023-02-06T20:24:07.591Z,-2.71
2023-02-06T20:25:15.457Z,-2.69
2023-02-06T20:26:21.817Z,-2.80
2023-02-06T20:27:26.876Z,-2.86
2023-02-06T20:28:31.924Z,-2.70
2023-02-06T20:29:41.910Z,-2.66
2023-02-06T20:30:48.194Z,-2.73
2023-02-06T20:31:52.373Z,-2.78
2023-02-06T20:32:56.017Z,-2.79
2023-02-06T20:34:00.827Z,-2.79
2023-02-06T20:35:07.069Z,-2.84
2023-02-06T20:36:15.539Z,-2.80
2023-02-06T20:37:21.824Z,-2.73
2023-02-06T20:38:27.322Z,-2.73
2023-02-06T20:39:31.222Z,-2.66
2023-02-06T20:40:35.911Z,-2.72
2023-02-06T20:41:44.499Z,-2.58
2023-02-06T20:42:51.205Z,-2.59
2023-02-06T20:44:02.164Z,-2.71
2023-02-06T20:45:07.288Z,-2.65
2023-02-06T20:46:11.936Z,-2.73
2023-02-06T20:47:20.618Z,-2.76
2023-02-06T20:48:26.008Z,-2.73
2023-02-06T20:49:31.699Z,-2.79
2023-02-06T20:50:37.702Z,-2.87
2023-02-06T20:51:41.266Z,-2.84
2023-02-06T20:52:47.388Z,-2.93
2023-02-06T20:53:55.784Z,-2.69
2023-02-06T20:55:04.302Z,-2.81
2023-02-06T20:56:19.486Z,-2.72
2023-02-06T20:57:28.147Z,-2.83
2023-02-06T20:58:37.074Z,-2.80
2023-02-06T20:59:42.835Z,-2.88
2023-02-06T21:00:53.445Z,-2.97
2023-02-06T21:02:02.285Z,-2.87
2023-02-06T21:03:10.438Z,-2.94
2023-02-06T21:04:17.903Z,-3.02
2023-02-06T21:05:25.834Z,-3.02
2023-02-06T21:06:33.930Z,-3.06
2023-02-06T21:07:41.925Z,-2.90
2023-02-06T21:08:51.359Z,-2.95
2023-02-06T21:09:57.818Z,-2.92
2023-02-06T21:11:11.099Z,-3.02
2023-02-06T21:12:20.356Z,-3.01
2023-02-06T21:13:24.296Z,-3.13
2023-02-06T21:14:30.303Z,-3.19
2023-02-06T21:15:34.161Z,-3.11
2023-02-06T21:16:42.476Z,-2.99
2023-02-06T21:17:47.997Z,-2.96
2023-02-06T21:18:55.854Z,-3.03
2023-02-06T21:19:59.516Z,-3.04
2023-02-06T21:21:11.469Z,-2.95
2023-02-06T21:22:19.393Z,-2.94
2023-02-06T21:23:23.536Z,-2.94
2023-02-06T21:24:29.036Z,-2.96
2023-02-06T21:25:39.099Z,-2.95
2023-02-06T21:26:45.201Z,-3.15
2023-02-06T21:27:57.605Z,-3.05
2023-02-06T21:35:02.976Z,-2.97
2023-02-06T21:36:10.818Z,-3.02
2023-02-06T21:37:15.113Z,-2.92
2023-02-06T21:38:25.905Z,-2.86
2023-02-06T21:39:30.826Z,-2.87
2023-02-06T21:40:39.891Z,-2.91
2023-02-06T21:41:52.109Z,-3.20
2023-02-06T21:43:21.432Z,-2.95
2023-02-06T21:44:34.476Z,-3.06
2023-02-06T21:45:41.279Z,-3.00
2023-02-06T21:46:52.260Z,-3.00
2023-02-06T21:48:07.187Z,-2.99
2023-02-06T21:49:24.130Z,-2.88
2023-02-06T21:50:29.524Z,-2.91
2023-02-06T21:51:33.135Z,-2.79
2023-02-06T21:52:41.220Z,-2.62
2023-02-06T21:53:50.139Z,-2.69
2023-02-06T21:55:02.571Z,-3.06
2023-02-06T21:56:09.184Z,-2.99
2023-02-06T21:57:14.242Z,-3.12
2023-02-06T21:58:21.213Z,-3.09
2023-02-06T21:59:28.731Z,-2.98
2023-02-06T22:00:36.889Z,-3.10
2023-02-06T22:01:43.896Z,-3.05
2023-02-06T22:02:49.672Z,-3.01
2023-02-06T22:03:54.886Z,-2.90
2023-02-06T22:05:00.559Z,-3.12
2023-02-06T22:06:09.026Z,-3.07
2023-02-06T22:07:13.777Z,-3.05
2023-02-06T22:08:20.603Z,-2.89
2023-02-06T22:09:24.070Z,-3.00
2023-02-06T22:10:31.476Z,-2.96
2023-02-06T22:11:38.164Z,-2.95
2023-02-06T22:12:44.450Z,-3.15
2023-02-06T22:13:49.230Z,-2.95
2023-02-06T22:14:53.428Z,-2.99
2023-02-06T22:15:57.691Z,-2.95
2023-02-06T22:17:01.669Z,-3.19
2023-02-06T22:18:17.173Z,-3.00
2023-02-06T22:19:21.344Z,-2.96
2023-02-06T22:20:26.430Z,-2.90
2023-02-06T22:21:32.519Z,-2.87
2023-02-06T22:22:41.281Z,-2.97
2023-02-06T22:23:50.812Z,-2.81
2023-02-06T22:24:55.479Z,-2.92
2023-02-06T22:26:02.754Z,-3.22
2023-02-06T22:27:06.502Z,-3.03
2023-02-06T22:28:09.873Z,-2.97
2023-02-06T22:29:18.432Z,-2.98
2023-02-06T22:30:23.514Z,-2.86
2023-02-06T22:31:33.108Z,-2.96
2023-02-06T22:32:42.861Z,-2.90
2023-02-06T22:33:46.468Z,-2.85
2023-02-06T22:34:54.503Z,-2.72
2023-02-06T22:35:59.182Z,-2.83
2023-02-06T22:37:05.210Z,-3.02
2023-02-06T22:38:38.329Z,-3.09
2023-02-06T22:39:45.932Z,-2.89
2023-02-06T22:41:05.257Z,-2.86
2023-02-06T22:42:10.296Z,-2.80
2023-02-06T22:43:19.737Z,-3.00
2023-02-06T22:44:25.784Z,-3.13
2023-02-06T22:45:32.280Z,-2.83
2023-02-06T22:46:40.642Z,-2.75
2023-02-06T22:47:44.222Z,-3.06
2023-02-06T22:48:48.316Z,-2.88
2023-02-06T22:49:56.908Z,-2.82
2023-02-06T22:51:08.931Z,-2.97
2023-02-06T22:52:31.176Z,-2.83
2023-02-06T22:53:34.741Z,-3.09
2023-02-06T22:54:44.309Z,-3.21
2023-02-06T22:56:07.581Z,-3.21
2023-02-06T22:57:10.723Z,-3.18
2023-02-06T22:58:14.342Z,-3.02
2023-02-06T22:59:35.934Z,-2.97
2023-02-06T23:00:43.236Z,-3.01
2023-02-06T23:01:50.841Z,-2.98
2023-02-06T23:02:58.825Z,-2.84
2023-02-06T23:04:20.444Z,-2.85
2023-02-06T23:05:24.296Z,-2.76
2023-02-06T23:06:30.940Z,-3.07
2023-02-06T23:07:37.681Z,-2.87
2023-02-06T23:08:47.143Z,-3.10
2023-02-06T23:09:53.106Z,-3.09
2023-02-06T23:10:59.805Z,-3.14
2023-02-06T23:12:04.399Z,-3.03
2023-02-06T23:13:09.731Z,-2.93
2023-02-06T23:14:16.530Z,-2.89
2023-02-06T23:15:21.103Z,-2.94
2023-02-06T23:16:27.480Z,-2.92
2023-02-06T23:17:32.716Z,-2.80
2023-02-06T23:18:37.365Z,-2.82
2023-02-06T23:19:42.363Z,-2.79
2023-02-06T23:20:46.495Z,-2.81
2023-02-06T23:21:54.351Z,-3.04
2023-02-06T23:22:59.658Z,-3.20
2023-02-06T23:24:05.300Z,-2.92
2023-02-06T23:25:10.589Z,-3.02
2023-02-06T23:26:16.775Z,-3.14
2023-02-06T23:27:24.127Z,-3.18
2023-02-06T23:28:30.999Z,-3.27
2023-02-06T23:29:38.182Z,-3.21
2023-02-06T23:30:43.862Z,-3.38
2023-02-06T23:31:48.693Z,-3.19
2023-02-06T23:32:53.105Z,-3.14
2023-02-06T23:33:56.762Z,-3.17
2023-02-06T23:35:00.888Z,-3.16
2023-02-06T23:36:16.530Z,-3.04
2023-02-06T23:37:22.902Z,-3.07
2023-02-06T23:38:29.071Z,-3.21
2023-02-06T23:39:34.981Z,-3.22
2023-02-06T23:40:40.202Z,-3.23
2023-02-06T23:41:43.673Z,-3.03
2023-02-06T23:42:49.288Z,-2.87
2023-02-06T23:44:04.265Z,-2.92
2023-02-06T23:45:35.313Z,-2.87
2023-02-06T23:46:43.239Z,-2.75
2023-02-06T23:47:48.163Z,-2.64
2023-02-06T23:48:53.693Z,-2.68
2023-02-06T23:49:59.779Z,-2.85
2023-02-06T23:51:06.846Z,-2.83
2023-02-06T23:52:10.255Z,-2.83
2023-02-06T23:53:13.569Z,-2.86
2023-02-06T23:54:17.310Z,-2.98
2023-02-06T23:55:24.568Z,-3.13
2023-02-06T23:56:30.204Z,-3.08
2023-02-06T23:57:38.297Z,-3.05
2023-02-06T23:58:44.272Z,-3.02
2023-02-06T23:59:47.731Z,-2.91
